createdAt,value
2019-01-30T00:01:55.656Z,76.56
2019-01-30T00:04:25.731Z,76.85
2019-01-30T00:06:56.780Z,77.02
2019-01-30T00:09:26.950Z,76.59
2019-01-30T00:11:56.954Z,75.95
2019-01-30T00:14:26.930Z,76.22
2019-01-30T00:16:56.965Z,76.54
2019-01-30T00:19:26.963Z,76.98
2019-01-30T00:21:57.078Z,77.22
2019-01-30T00:24:28.286Z,76.84
2019-01-30T00:26:58.342Z,76.52
2019-01-30T00:29:28.231Z,76.14
2019-01-30T00:31:59.884Z,76.88
2019-01-30T00:34:29.724Z,76.64
2019-01-30T00:36:59.660Z,76.67
2019-01-30T00:39:29.519Z,76.54
2019-01-30T00:41:59.402Z,75.88
2019-01-30T00:44:30.964Z,75.96
2019-01-30T00:47:00.960Z,76.02
2019-01-30T00:49:30.949Z,76.05
2019-01-30T00:52:01.072Z,76.93
2019-01-30T00:54:32.096Z,76.64
2019-01-30T00:57:02.174Z,76.56
2019-01-30T00:59:32.150Z,76.54
2019-01-30T01:02:02.113Z,76.21
2019-01-30T01:04:33.903Z,76.09
2019-01-30T01:07:03.971Z,75.63
2019-01-30T01:09:33.998Z,75.94
2019-01-30T01:12:04.007Z,75.75
2019-01-30T01:14:34.041Z,75.61
2019-01-30T01:17:03.952Z,75.56
2019-01-30T01:19:34.002Z,74.04
2019-01-30T01:22:04.255Z,74.29
2019-01-30T01:24:34.209Z,73.74
2019-01-30T01:27:04.132Z,74.25
2019-01-30T01:29:35.112Z,74.45
2019-01-30T01:32:05.230Z,73.61
2019-01-30T01:34:35.152Z,74.20
2019-01-30T01:37:05.468Z,74.57
2019-01-30T01:39:35.485Z,74.03
2019-01-30T01:42:05.533Z,73.61
2019-01-30T01:47:24.467Z,73.88
2019-01-30T01:49:54.332Z,73.93
2019-01-30T01:52:24.272Z,74.36
2019-01-30T01:54:54.246Z,74.22
2019-01-30T01:57:24.121Z,74.03
2019-01-30T01:59:54.168Z,74.30
2019-01-30T02:02:24.053Z,73.42
2019-01-30T02:04:54.042Z,73.42
2019-01-30T02:07:24.091Z,74.29
2019-01-30T02:09:54.097Z,74.19
2019-01-30T02:12:23.973Z,73.89
2019-01-30T02:14:53.939Z,73.93
2019-01-30T02:17:23.984Z,74.76
2019-01-30T02:19:54.018Z,74.92
2019-01-30T02:22:24.022Z,74.82
2019-01-30T02:24:54.100Z,74.68
2019-01-30T02:27:23.936Z,74.76
2019-01-30T02:29:53.974Z,74.80
2019-01-30T02:32:23.969Z,74.41
2019-01-30T02:34:53.972Z,74.70
2019-01-30T02:37:23.818Z,74.41
2019-01-30T02:39:57.060Z,74.45
2019-01-30T02:42:27.088Z,74.87
2019-01-30T02:44:57.129Z,74.11
2019-01-30T02:47:27.134Z,73.76
2019-01-30T02:49:56.997Z,73.37
2019-01-30T02:52:27.008Z,74.09
2019-01-30T02:54:56.955Z,74.61
2019-01-30T02:57:26.908Z,73.84
2019-01-30T02:59:56.834Z,73.80
2019-01-30T03:02:26.887Z,73.26
2019-01-30T03:04:56.795Z,73.49
2019-01-30T03:07:26.830Z,73.53
2019-01-30T03:09:56.785Z,73.81
2019-01-30T03:12:26.752Z,73.59
2019-01-30T03:14:56.712Z,73.74
2019-01-30T03:17:26.677Z,73.74
2019-01-30T03:19:56.591Z,74.48
2019-01-30T03:22:26.468Z,74.76
2019-01-30T03:24:56.442Z,74.60
2019-01-30T03:27:26.346Z,74.03
2019-01-30T03:29:56.387Z,73.61
2019-01-30T03:32:26.381Z,73.75
2019-01-30T03:34:56.415Z,73.68
2019-01-30T03:37:26.229Z,73.94
2019-01-30T03:39:56.081Z,73.98
2019-01-30T03:42:26.059Z,73.47
2019-01-30T03:44:56.038Z,74.46
2019-01-30T03:47:26.174Z,74.88
2019-01-30T03:49:56.133Z,74.28
2019-01-30T03:52:26.069Z,74.58
2019-01-30T03:54:56.200Z,74.28
2019-01-30T03:57:28.848Z,73.78
2019-01-30T03:59:57.850Z,73.58
2019-01-30T04:02:27.844Z,74.14
2019-01-30T04:04:57.806Z,74.70
2019-01-30T04:07:27.871Z,74.41
2019-01-30T04:09:57.962Z,74.41
2019-01-30T04:12:28.010Z,74.94
2019-01-30T04:14:57.998Z,74.74
2019-01-30T04:17:27.948Z,74.28
2019-01-30T04:19:57.793Z,74.40
2019-01-30T04:22:27.719Z,75.02
2019-01-30T04:24:57.636Z,75.18
2019-01-30T04:27:27.905Z,75.55
2019-01-30T04:29:57.918Z,74.69
2019-01-30T04:32:27.941Z,75.19
2019-01-30T04:34:57.807Z,75.04
2019-01-30T04:37:27.846Z,75.45
2019-01-30T04:39:57.771Z,75.29
2019-01-30T04:42:27.642Z,75.24
2019-01-30T04:44:57.532Z,74.58
2019-01-30T04:47:27.665Z,75.02
2019-01-30T04:49:57.663Z,74.90
2019-01-30T04:52:27.598Z,75.25
2019-01-30T04:54:57.686Z,75.60
2019-01-30T04:57:27.675Z,76.16
2019-01-30T04:59:58.685Z,76.17
2019-01-30T05:02:28.647Z,76.23
2019-01-30T05:04:58.684Z,76.59
2019-01-30T05:07:28.711Z,76.71
2019-01-30T05:09:58.812Z,76.27
2019-01-30T05:12:28.653Z,75.83
2019-01-30T05:14:58.614Z,75.10
2019-01-30T05:17:28.555Z,75.12
2019-01-30T05:19:58.522Z,75.95
2019-01-30T05:22:28.464Z,75.96
2019-01-30T05:24:58.372Z,75.96
2019-01-30T05:27:28.243Z,75.86
2019-01-30T05:29:58.223Z,75.20
2019-01-30T05:32:28.217Z,74.72
2019-01-30T05:34:58.081Z,75.30
2019-01-30T05:37:27.974Z,76.29
2019-01-30T05:39:57.866Z,75.68
2019-01-30T05:42:27.737Z,75.90
2019-01-30T05:44:57.723Z,75.47
2019-01-30T05:47:27.672Z,75.46
2019-01-30T05:49:58.603Z,75.08
2019-01-30T05:52:28.550Z,74.19
2019-01-30T05:54:58.547Z,74.30
2019-01-30T05:57:28.495Z,74.22
2019-01-30T05:59:58.405Z,73.48
2019-01-30T06:02:28.374Z,73.31
2019-01-30T06:04:58.342Z,73.56
2019-01-30T06:07:28.241Z,73.05
2019-01-30T06:09:58.332Z,72.73
2019-01-30T06:12:28.315Z,73.49
2019-01-30T06:14:58.268Z,73.43
2019-01-30T06:17:28.112Z,73.20
2019-01-30T06:19:58.010Z,73.60
2019-01-30T06:22:27.895Z,74.37
2019-01-30T06:24:57.904Z,73.67
2019-01-30T06:27:27.812Z,73.61
2019-01-30T06:29:57.656Z,72.95
2019-01-30T06:32:27.764Z,72.38
2019-01-30T06:34:57.659Z,72.66
2019-01-30T06:37:27.748Z,73.06
2019-01-30T06:39:57.656Z,73.04
2019-01-30T06:42:27.616Z,72.62
2019-01-30T06:44:57.532Z,72.43
2019-01-30T06:47:27.605Z,72.37
2019-01-30T06:49:57.430Z,73.13
2019-01-30T06:52:27.445Z,73.40
2019-01-30T06:54:57.334Z,72.55
2019-01-30T06:57:27.194Z,72.45
2019-01-30T06:59:57.139Z,72.20
2019-01-30T07:02:32.240Z,71.55
2019-01-30T07:04:58.826Z,71.00
2019-01-30T07:07:28.741Z,71.32
2019-01-30T07:09:58.728Z,72.58
2019-01-30T07:12:28.746Z,72.98
2019-01-30T07:14:58.639Z,72.96
2019-01-30T07:17:28.655Z,73.20
2019-01-30T07:19:58.693Z,72.60
2019-01-30T07:22:28.517Z,72.03
2019-01-30T07:24:58.463Z,72.14
2019-01-30T07:27:28.409Z,72.16
2019-01-30T07:29:58.473Z,71.91
2019-01-30T07:32:28.475Z,70.76
2019-01-30T07:34:58.438Z,70.02
2019-01-30T07:37:28.386Z,70.01
2019-01-30T07:39:58.360Z,69.38
2019-01-30T07:42:28.301Z,69.26
2019-01-30T07:44:58.139Z,67.68
2019-01-30T07:47:28.175Z,68.53
2019-01-30T07:49:58.092Z,68.13
2019-01-30T07:52:28.110Z,68.48
2019-01-30T07:54:58.034Z,67.98
2019-01-30T07:57:28.074Z,68.02
2019-01-30T07:59:57.907Z,67.37
2019-01-30T08:02:27.921Z,67.62
2019-01-30T08:04:57.756Z,66.56
2019-01-30T08:07:27.841Z,65.82
2019-01-30T08:09:57.880Z,66.50
2019-01-30T08:12:27.910Z,65.30
2019-01-30T08:14:57.894Z,65.39
2019-01-30T08:17:27.874Z,66.08
2019-01-30T08:19:57.824Z,66.63
2019-01-30T08:22:27.854Z,62.52
2019-01-30T08:24:57.731Z,59.26
2019-01-30T08:27:27.879Z,59.65
2019-01-30T08:29:57.996Z,61.36
2019-01-30T08:32:28.256Z,60.37
2019-01-30T08:34:58.298Z,60.29
2019-01-30T08:37:28.183Z,60.19
2019-01-30T08:39:58.125Z,59.94
2019-01-30T08:42:27.964Z,60.17
2019-01-30T08:44:57.977Z,59.17
2019-01-30T08:47:27.957Z,58.46
2019-01-30T08:49:58.010Z,58.09
2019-01-30T08:52:27.923Z,58.81
2019-01-30T08:54:57.857Z,57.45
2019-01-30T08:57:27.810Z,57.05
2019-01-30T08:59:57.768Z,56.46
2019-01-30T09:02:28.691Z,55.75
2019-01-30T09:04:58.748Z,55.42
2019-01-30T09:07:28.672Z,55.85
2019-01-30T09:09:58.744Z,56.01
2019-01-30T09:12:28.778Z,55.00
2019-01-30T09:14:58.775Z,56.20
2019-01-30T09:17:28.837Z,55.45
2019-01-30T09:19:58.742Z,55.34
2019-01-30T09:22:28.678Z,55.30
2019-01-30T09:24:58.530Z,56.84
2019-01-30T09:27:28.554Z,55.63
2019-01-30T09:29:58.475Z,56.25
2019-01-30T09:32:28.434Z,57.75
2019-01-30T09:34:58.404Z,57.88
2019-01-30T09:37:28.444Z,56.96
2019-01-30T09:39:58.308Z,56.07
2019-01-30T09:42:28.215Z,57.40
2019-01-30T09:44:58.060Z,57.43
2019-01-30T09:47:28.113Z,57.05
2019-01-30T09:49:58.214Z,57.86
2019-01-30T09:52:28.457Z,60.39
2019-01-30T09:54:58.357Z,61.69
2019-01-30T09:57:28.205Z,61.65
2019-01-30T09:59:58.154Z,62.05
2019-01-30T10:02:28.072Z,61.43
2019-01-30T10:04:58.012Z,60.26
2019-01-30T10:07:27.998Z,58.53
2019-01-30T10:09:57.975Z,56.33
2019-01-30T10:12:27.825Z,55.03
2019-01-30T10:14:58.090Z,54.33
2019-01-30T10:17:31.072Z,58.06
2019-01-30T10:20:00.012Z,52.89
2019-01-30T10:22:29.927Z,53.37
2019-01-30T10:24:59.798Z,52.78
2019-01-30T10:27:29.734Z,53.27
2019-01-30T10:29:59.569Z,52.21
2019-01-30T10:32:29.537Z,52.79
2019-01-30T10:34:59.417Z,52.51
2019-01-30T10:37:29.397Z,51.22
2019-01-30T10:39:59.306Z,50.86
2019-01-30T10:42:29.318Z,50.79
2019-01-30T10:44:59.322Z,50.57
2019-01-30T10:47:29.252Z,53.74
2019-01-30T10:49:59.226Z,50.65
2019-01-30T10:52:29.233Z,50.62
2019-01-30T10:54:59.153Z,50.90
2019-01-30T10:57:29.191Z,50.70
2019-01-30T10:59:59.118Z,50.67
2019-01-30T11:02:29.140Z,49.23
2019-01-30T11:04:59.012Z,48.75
2019-01-30T11:07:28.917Z,51.32
2019-01-30T11:09:58.836Z,51.45
2019-01-30T11:12:28.694Z,50.29
2019-01-30T11:14:58.671Z,51.29
2019-01-30T11:17:28.664Z,52.74
2019-01-30T11:19:58.711Z,52.38
2019-01-30T11:22:28.707Z,51.90
2019-01-30T11:24:58.724Z,51.43
2019-01-30T11:27:28.724Z,48.63
2019-01-30T11:29:58.709Z,49.03
2019-01-30T11:32:28.670Z,50.18
2019-01-30T11:34:58.706Z,48.64
2019-01-30T11:37:28.645Z,49.11
2019-01-30T11:39:58.664Z,49.77
2019-01-30T11:42:28.900Z,50.19
2019-01-30T11:44:58.757Z,49.05
2019-01-30T11:47:28.766Z,49.92
2019-01-30T11:49:58.778Z,49.17
2019-01-30T11:52:28.802Z,47.64
2019-01-30T11:54:58.813Z,46.22
2019-01-30T11:57:28.777Z,47.95
2019-01-30T11:59:58.737Z,46.01
2019-01-30T12:02:28.733Z,46.57
2019-01-30T12:04:58.564Z,46.68
2019-01-30T12:07:28.607Z,46.61
2019-01-30T12:09:58.621Z,47.21
2019-01-30T12:12:28.721Z,47.73
2019-01-30T12:14:58.674Z,48.39
2019-01-30T12:17:28.628Z,47.26
2019-01-30T12:19:58.615Z,47.66
2019-01-30T12:22:28.428Z,48.40
2019-01-30T12:24:58.447Z,47.82
2019-01-30T12:27:28.447Z,47.67
2019-01-30T12:29:58.308Z,47.96
2019-01-30T12:32:29.291Z,47.72
2019-01-30T12:34:59.315Z,47.62
2019-01-30T12:37:29.479Z,47.22
2019-01-30T12:39:59.526Z,48.10
2019-01-30T12:42:29.536Z,46.48
2019-01-30T12:44:59.598Z,46.24
2019-01-30T12:47:31.362Z,46.38
2019-01-30T12:50:01.525Z,47.29
2019-01-30T12:52:31.516Z,47.27
2019-01-30T12:55:01.683Z,46.57
2019-01-30T12:57:31.719Z,47.32
2019-01-30T13:00:01.603Z,47.60
2019-01-30T13:02:31.616Z,47.48
2019-01-30T13:05:01.762Z,46.70
2019-01-30T13:07:31.910Z,46.43
2019-01-30T13:10:01.875Z,46.38
2019-01-30T13:12:31.817Z,47.17
2019-01-30T13:15:01.797Z,46.23
2019-01-30T13:17:31.826Z,45.49
2019-01-30T13:20:01.648Z,46.04
2019-01-30T13:22:31.614Z,46.53
2019-01-30T13:25:02.602Z,46.24
2019-01-30T13:27:32.657Z,46.47
2019-01-30T13:30:05.204Z,47.02
2019-01-30T13:32:35.313Z,46.83
2019-01-30T13:35:06.259Z,46.68
2019-01-30T13:37:37.940Z,46.88
2019-01-30T13:40:12.485Z,46.96
2019-01-30T13:42:42.713Z,47.28
2019-01-30T13:45:14.053Z,47.15
2019-01-30T13:47:44.133Z,47.11
2019-01-30T13:50:16.977Z,46.73
2019-01-30T13:52:46.977Z,45.20
2019-01-30T13:55:17.192Z,44.28
2019-01-30T13:57:47.210Z,46.27
2019-01-30T14:00:20.231Z,46.36
2019-01-30T14:02:50.302Z,46.60
2019-01-30T14:05:21.337Z,46.49
2019-01-30T14:07:52.086Z,47.15
2019-01-30T14:10:22.641Z,46.82
2019-01-30T14:12:52.657Z,47.04
2019-01-30T14:15:24.568Z,47.43
2019-01-30T14:17:54.655Z,47.65
2019-01-30T14:20:24.823Z,47.79
2019-01-30T14:22:54.774Z,48.30
2019-01-30T14:25:25.022Z,48.98
2019-01-30T14:27:54.990Z,49.69
2019-01-30T14:30:30.368Z,50.52
2019-01-30T14:33:00.539Z,50.76
2019-01-30T14:35:32.932Z,50.96
2019-01-30T14:38:02.838Z,51.75
2019-01-30T14:40:32.828Z,51.63
2019-01-30T14:43:02.850Z,51.33
2019-01-30T14:45:32.766Z,51.21
2019-01-30T14:48:02.922Z,51.25
2019-01-30T14:50:33.113Z,49.36
2019-01-30T14:53:03.034Z,48.87
2019-01-30T14:55:33.166Z,49.17
2019-01-30T14:58:03.298Z,48.95
2019-01-30T15:00:33.969Z,49.45
2019-01-30T15:03:03.911Z,49.67
2019-01-30T15:05:33.924Z,49.68
2019-01-30T15:08:04.160Z,49.82
2019-01-30T15:10:33.988Z,50.06
2019-01-30T15:13:04.542Z,50.20
2019-01-30T15:15:34.480Z,49.81
2019-01-30T15:18:04.926Z,49.91
2019-01-30T15:20:35.813Z,49.82
2019-01-30T15:23:07.270Z,49.78
2019-01-30T15:25:37.252Z,49.79
2019-01-30T15:28:07.730Z,49.58
2019-01-30T15:30:43.427Z,49.68
2019-01-30T15:33:13.514Z,49.50
2019-01-30T15:35:43.646Z,49.42
2019-01-30T15:38:15.482Z,50.12
2019-01-30T15:40:45.788Z,49.69
2019-01-30T15:43:15.876Z,50.11
2019-01-30T15:45:45.845Z,50.15
2019-01-30T15:48:16.221Z,49.69
2019-01-30T15:50:49.660Z,49.66
2019-01-30T15:53:26.966Z,52.19
2019-01-30T15:55:58.928Z,52.88
2019-01-30T15:58:29.508Z,52.88
2019-01-30T16:01:16.401Z,52.89
2019-01-30T16:03:46.425Z,53.12
2019-01-30T16:06:16.402Z,53.33
2019-01-30T16:08:46.392Z,53.54
2019-01-30T16:11:16.468Z,54.11
2019-01-30T16:13:48.116Z,54.03
2019-01-30T16:16:18.282Z,54.14
2019-01-30T16:18:48.202Z,54.39
2019-01-30T16:21:19.474Z,54.59
2019-01-30T16:23:49.458Z,54.85
2019-01-30T16:26:21.236Z,55.20
2019-01-30T16:28:51.111Z,55.30
2019-01-30T16:31:21.170Z,55.30
2019-01-30T16:33:52.075Z,55.57
2019-01-30T16:36:22.020Z,55.73
2019-01-30T16:38:52.118Z,56.11
2019-01-30T16:41:22.142Z,55.93
2019-01-30T16:43:52.081Z,55.60
2019-01-30T16:46:22.089Z,55.95
2019-01-30T16:48:52.006Z,56.12
2019-01-30T16:51:22.040Z,56.25
2019-01-30T16:53:52.016Z,56.46
2019-01-30T16:56:22.103Z,56.31
2019-01-30T16:58:52.139Z,56.37
2019-01-30T17:01:22.202Z,55.98
2019-01-30T17:03:52.160Z,56.23
2019-01-30T17:06:22.182Z,56.13
2019-01-30T17:08:52.178Z,56.42
2019-01-30T17:11:22.249Z,56.70
2019-01-30T17:13:52.151Z,56.68
2019-01-30T17:16:22.166Z,56.94
2019-01-30T17:18:52.132Z,57.41
2019-01-30T17:21:22.128Z,56.91
2019-01-30T17:23:52.117Z,57.13
2019-01-30T17:26:22.181Z,57.41
2019-01-30T17:28:52.059Z,57.49
2019-01-30T17:31:28.375Z,57.15
2019-01-30T17:33:58.350Z,57.68
2019-01-30T17:36:28.365Z,57.59
2019-01-30T17:38:58.370Z,57.23
2019-01-30T17:41:28.312Z,57.42
2019-01-30T17:43:58.320Z,57.72
2019-01-30T17:46:28.349Z,57.70
2019-01-30T17:48:58.194Z,57.72
2019-01-30T17:51:28.218Z,57.58
2019-01-30T17:53:58.112Z,58.01
2019-01-30T17:56:28.146Z,58.34
2019-01-30T17:58:58.263Z,58.48
2019-01-30T18:01:28.312Z,58.37
2019-01-30T18:03:58.292Z,58.59
2019-01-30T18:06:29.981Z,58.49
2019-01-30T18:09:00.213Z,58.92
2019-01-30T18:11:30.295Z,59.01
2019-01-30T18:14:00.243Z,58.86
2019-01-30T18:16:30.340Z,59.16
2019-01-30T18:19:00.218Z,59.21
2019-01-30T18:21:32.098Z,59.63
2019-01-30T18:24:01.835Z,59.73
2019-01-30T18:26:31.931Z,59.99
2019-01-30T18:29:02.038Z,60.25
2019-01-30T18:31:33.658Z,60.06
2019-01-30T18:34:03.579Z,60.16
2019-01-30T18:36:40.690Z,60.02
2019-01-30T18:39:08.576Z,59.66
2019-01-30T18:41:38.553Z,59.55
2019-01-30T18:44:08.430Z,59.31
2019-01-30T18:46:38.640Z,58.95
2019-01-30T18:49:08.562Z,59.33
2019-01-30T18:51:38.486Z,59.27
2019-01-30T18:54:27.446Z,58.99
2019-01-30T18:56:57.374Z,59.02
2019-01-30T18:59:27.519Z,59.29
2019-01-30T19:01:57.378Z,59.26
2019-01-30T19:04:27.401Z,59.35
2019-01-30T19:06:57.518Z,59.95
2019-01-30T19:09:27.508Z,60.00
2019-01-30T19:11:57.452Z,59.69
2019-01-30T19:14:27.441Z,60.00
2019-01-30T19:16:57.495Z,59.83
2019-01-30T19:19:27.505Z,59.93
2019-01-30T19:21:57.481Z,60.03
2019-01-30T19:24:27.416Z,60.33
2019-01-30T19:26:57.428Z,60.58
2019-01-30T19:29:27.349Z,60.84
2019-01-30T19:31:57.277Z,60.95
2019-01-30T19:34:27.196Z,61.04
2019-01-30T19:39:33.180Z,61.56
2019-01-30T19:42:03.162Z,61.66
2019-01-30T19:44:33.708Z,62.28
2019-01-30T19:47:03.775Z,62.13
2019-01-30T19:49:33.688Z,62.21
2019-01-30T19:52:03.966Z,61.89
2019-01-30T19:54:33.882Z,61.76
2019-01-30T19:57:03.918Z,61.98
2019-01-30T19:59:33.894Z,62.36
2019-01-30T20:02:04.106Z,62.15
2019-01-30T20:04:53.060Z,62.05
2019-01-30T20:07:23.038Z,62.11
2019-01-30T20:09:54.047Z,62.42
2019-01-30T20:12:24.219Z,62.73
2019-01-30T20:14:54.347Z,62.69
2019-01-30T20:17:24.538Z,62.97
2019-01-30T20:19:54.496Z,62.86
2019-01-30T20:22:24.430Z,63.09
2019-01-30T20:24:54.500Z,63.16
2019-01-30T20:27:24.562Z,63.43
2019-01-30T20:29:54.724Z,63.32
2019-01-30T20:32:24.546Z,63.33
2019-01-30T20:34:55.747Z,63.33
2019-01-30T20:37:26.530Z,63.21
2019-01-30T20:39:56.811Z,62.90
2019-01-30T20:42:27.082Z,62.85
2019-01-30T20:44:57.166Z,63.00
2019-01-30T20:47:27.124Z,62.78
2019-01-30T20:49:56.975Z,62.96
2019-01-30T20:52:27.120Z,62.28
2019-01-30T20:54:59.899Z,61.95
2019-01-30T20:57:28.840Z,61.92
2019-01-30T20:59:58.896Z,61.45
2019-01-30T21:02:29.036Z,60.70
2019-01-30T21:04:59.060Z,60.54
2019-01-30T21:07:37.020Z,60.84
2019-01-30T21:10:00.804Z,60.45
2019-01-30T21:12:30.759Z,59.98
2019-01-30T21:15:01.850Z,60.28
2019-01-30T21:17:31.921Z,60.66
2019-01-30T21:20:01.768Z,60.62
2019-01-30T21:22:32.732Z,60.71
2019-01-30T21:25:02.610Z,63.51
2019-01-30T21:27:33.544Z,65.31
2019-01-30T21:30:03.564Z,61.96
2019-01-30T21:32:33.521Z,62.45
2019-01-30T21:35:03.528Z,62.31
2019-01-30T21:37:33.468Z,62.54
2019-01-30T21:40:03.732Z,62.15
2019-01-30T21:42:33.576Z,62.29
2019-01-30T21:45:03.591Z,62.13
2019-01-30T21:47:33.519Z,61.95
2019-01-30T21:50:03.498Z,62.04
2019-01-30T21:52:33.348Z,62.14
2019-01-30T21:55:04.073Z,61.84
2019-01-30T21:57:53.201Z,61.96
2019-01-30T22:00:25.030Z,61.78
2019-01-30T22:02:56.151Z,62.23
2019-01-30T22:05:26.451Z,62.35
2019-01-30T22:08:01.103Z,62.29
2019-01-30T22:10:29.532Z,62.30
2019-01-30T22:12:59.546Z,61.98
2019-01-30T22:15:29.623Z,62.19
2019-01-30T22:17:59.654Z,61.99
2019-01-30T22:20:29.756Z,61.47
2019-01-30T22:23:00.045Z,62.04
2019-01-30T22:25:29.953Z,61.85
2019-01-30T22:27:59.953Z,61.78
2019-01-30T22:30:32.278Z,62.18
2019-01-30T22:33:02.331Z,62.56
2019-01-30T22:35:32.257Z,62.33
2019-01-30T22:38:12.173Z,62.52
2019-01-30T22:40:33.906Z,63.07
2019-01-30T22:43:03.954Z,63.22
2019-01-30T22:45:33.982Z,64.27
2019-01-30T22:48:03.931Z,64.21
2019-01-30T22:50:33.915Z,65.54
2019-01-30T22:53:03.899Z,67.02
2019-01-30T22:55:33.940Z,65.98
2019-01-30T22:58:04.194Z,66.47
2019-01-30T23:01:13.297Z,67.17
2019-01-30T23:03:47.999Z,65.14
2019-01-30T23:06:45.012Z,64.46
2019-01-30T23:10:04.415Z,65.00
2019-01-30T23:12:55.782Z,64.58
2019-01-30T23:16:02.985Z,65.24
2019-01-30T23:18:44.371Z,64.96
2019-01-30T23:21:22.241Z,63.20
2019-01-30T23:24:33.077Z,54.76
2019-01-30T23:27:09.989Z,58.65
2019-01-30T23:30:19.233Z,61.66
2019-01-30T23:33:27.191Z,62.32
2019-01-30T23:36:27.492Z,64.26
2019-01-30T23:39:11.108Z,64.41
2019-01-30T23:42:06.262Z,64.81
2019-01-30T23:45:32.539Z,64.75
2019-01-30T23:48:20.739Z,65.00
2019-01-30T23:51:49.907Z,65.67
2019-01-30T23:54:45.785Z,66.88
2019-01-30T23:57:57.065Z,66.71
